EGMD/LYX METAR and TAF weather

Enter ICAO airport designator
Station Type Date Time Source
EGMD METAR 2021/03/08 02:50 UTC NOAA

EGMD 080250Z AUTO 33006KT 9999 NCD M03/M04 Q1025


Station Type Date Time Source
EGMD Decoded METAR 2021/03/08 02:50 UTC NOAA

Lydd Airport , United Kingdom (EGMD) 50-57N 000-56E
Mar 07, 2021 - 09:50 PM EST / 2021.03.08 0250 UTC
Wind: from the NNW (330 degrees) at 7 MPH (6 KT):0
Visibility: greater than 7 mile(s):0
Temperature: 26 F (-3 C)
Windchill: 17 F (-8 C):1
Dew Point: 24 F (-4 C)
Relative Humidity: 92%
Pressure (altimeter): 30.27 in. Hg (1025 hPa)
ob: EGMD 080250Z AUTO 33006KT 9999 NCD M03/M04 Q1025
cycle: 3

Station Type Date Time Source
EGMD TAF UTC NOAA

Error!

Example: see airport list